Archival Weather

South Haven Area Rgnl

South Haven, Michigan (KLWA)

Report from: Wednesday, December 6, 2023 12:35 AM EST
Current time: Saturday, February 24, 2024 11:37 AM EST

Current weather – Weather history – Daily summaries
Weather forecast

Temperature2.0°C (35.6°F)
Dew point0.4°C (32.7°F)
Winds Calm
Visibility10 mi. (16.1 km)
Clouds Ceiling: Broken clouds 3,600 ft. (1,097 m)
Overcast 4,200 ft. (1,280 m)
Altimeter30.19 in.Hg (1022 mB)
Relative humidity89 %
Density altitude-1,797 ft. (-548 m)
Remarks Fully automated report
Automated weather observing station with precipitation discriminator
Flight conditions Visual Meteorological Conditions
Raw dataKLWA 060535Z AUTO 00000KT 10SM BKN036 OVC042 02/00 A3019 RMK AO2 T00200004
An error has occurred. This application may no longer respond until reloaded. Reload 🗙